createdAt,value
2023-04-02T00:00:52.819Z,6.5388
2023-04-02T00:01:54.241Z,6.5443
2023-04-02T00:02:55.730Z,6.5507
2023-04-02T00:03:57.173Z,6.5558
2023-04-02T00:04:58.598Z,6.5573
2023-04-02T00:05:59.964Z,6.5568
2023-04-02T00:07:01.327Z,6.5602
2023-04-02T00:08:02.740Z,6.5650
2023-04-02T00:09:04.116Z,6.5654
2023-04-02T00:10:05.549Z,6.5668
2023-04-02T00:11:06.958Z,6.5708
2023-04-02T00:12:08.339Z,6.5775
2023-04-02T00:13:09.735Z,6.5842
2023-04-02T00:14:11.186Z,6.5872
2023-04-02T00:15:12.635Z,6.5911
2023-04-02T00:16:14.018Z,6.5931
2023-04-02T00:17:15.437Z,6.5960
2023-04-02T00:18:16.902Z,6.5976
2023-04-02T00:19:18.279Z,6.6007
2023-04-02T00:20:19.628Z,6.5997
2023-04-02T00:21:20.970Z,6.5975
2023-04-02T00:22:22.377Z,6.5918
2023-04-02T00:23:23.770Z,6.5880
2023-04-02T00:24:25.199Z,6.5869
2023-04-02T00:25:26.576Z,6.5870
2023-04-02T00:26:28.037Z,6.5884
2023-04-02T00:27:29.363Z,6.5900
2023-04-02T00:28:30.749Z,6.5894
2023-04-02T00:29:32.133Z,6.5868
2023-04-02T00:30:33.508Z,6.5832
2023-04-02T00:31:34.900Z,6.5759
2023-04-02T00:32:36.307Z,6.5698
2023-04-02T00:33:37.742Z,6.5620
2023-04-02T00:34:39.204Z,6.5524
2023-04-02T00:35:40.660Z,6.5405
2023-04-02T00:36:42.171Z,6.5251
2023-04-02T00:37:43.571Z,6.5080
2023-04-02T00:38:46.665Z,6.4904
2023-04-02T00:39:46.425Z,6.4701
2023-04-02T00:40:47.774Z,6.4524
2023-04-02T00:41:49.197Z,6.4383
2023-04-02T00:42:50.607Z,6.4206
2023-04-02T00:43:52.051Z,6.4027
2023-04-02T00:44:53.504Z,6.3866
2023-04-02T00:45:54.923Z,6.3723
2023-04-02T00:46:56.354Z,6.3581
2023-04-02T00:47:57.854Z,6.3446
2023-04-02T00:48:59.241Z,6.3301
2023-04-02T00:50:00.717Z,6.3174
2023-04-02T00:51:02.093Z,6.3053
2023-04-02T00:52:03.531Z,6.2883
2023-04-02T00:53:04.920Z,6.2720
2023-04-02T00:54:06.378Z,6.2610
2023-04-02T00:55:07.793Z,6.2505
2023-04-02T00:56:09.280Z,6.2396
2023-04-02T00:57:10.653Z,6.2307
2023-04-02T00:58:12.131Z,6.2222
2023-04-02T00:59:13.495Z,6.2166
2023-04-02T01:00:14.979Z,6.2121
2023-04-02T01:01:16.395Z,6.2075
2023-04-02T01:02:18.070Z,6.2064
2023-04-02T01:03:19.666Z,6.2059
2023-04-02T01:04:21.515Z,6.2027
2023-04-02T01:05:23.068Z,6.2000
2023-04-02T01:06:24.471Z,6.1940
2023-04-02T01:07:26.112Z,6.1866
2023-04-02T01:08:27.534Z,6.1748
2023-04-02T01:09:28.882Z,6.1620
2023-04-02T01:10:30.343Z,6.1512
2023-04-02T01:11:31.879Z,6.1376
2023-04-02T01:12:33.381Z,6.1270
2023-04-02T01:13:34.782Z,6.1185
2023-04-02T01:14:36.204Z,6.1184
2023-04-02T01:15:38.110Z,6.1220
2023-04-02T01:16:39.782Z,6.1269
2023-04-02T01:17:41.182Z,6.1318
2023-04-02T01:18:42.583Z,6.1371
2023-04-02T01:19:43.938Z,6.1445
2023-04-02T01:20:45.384Z,6.1519
2023-04-02T01:21:46.796Z,6.1590
2023-04-02T01:22:48.256Z,6.1619
2023-04-02T01:23:49.605Z,6.1658
2023-04-02T01:24:50.993Z,6.1705
2023-04-02T01:25:52.449Z,6.1761
2023-04-02T01:26:53.777Z,6.1800
2023-04-02T01:27:55.182Z,6.1857
2023-04-02T01:28:56.575Z,6.1879
2023-04-02T01:29:57.955Z,6.1913
2023-04-02T01:30:59.346Z,6.1934
2023-04-02T01:32:00.791Z,6.1977
2023-04-02T01:33:02.255Z,6.1979
2023-04-02T01:34:03.674Z,6.1979
2023-04-02T01:35:05.039Z,6.1974
2023-04-02T01:36:06.419Z,6.2006
2023-04-02T01:37:07.813Z,6.2063
2023-04-02T01:38:09.205Z,6.2121
2023-04-02T01:39:10.628Z,6.2177
2023-04-02T01:40:12.023Z,6.2237
2023-04-02T01:41:13.407Z,6.2313
2023-04-02T01:42:14.824Z,6.2353
2023-04-02T01:43:16.195Z,6.2390
2023-04-02T01:44:17.553Z,6.2422
2023-04-02T01:45:18.955Z,6.2474
2023-04-02T01:46:20.435Z,6.2526
2023-04-02T01:47:21.768Z,6.2561
2023-04-02T01:48:23.208Z,6.2574
2023-04-02T01:49:24.573Z,6.2595
2023-04-02T01:50:25.977Z,6.2614
2023-04-02T01:51:27.394Z,6.2654
2023-04-02T01:52:28.882Z,6.2686
2023-04-02T01:53:30.222Z,6.2720
2023-04-02T01:54:31.665Z,6.2779
2023-04-02T01:55:33.328Z,6.2827
2023-04-02T01:56:35.179Z,6.2896
2023-04-02T01:57:36.572Z,6.2912
2023-04-02T01:58:37.950Z,6.2878
2023-04-02T01:59:39.369Z,6.2820
2023-04-02T02:00:40.902Z,6.2789
2023-04-02T02:01:42.467Z,6.2777
2023-04-02T02:02:43.918Z,6.2782
2023-04-02T02:03:45.400Z,6.2814
2023-04-02T02:04:46.853Z,6.2847
2023-04-02T02:05:48.218Z,6.2875
2023-04-02T02:06:49.632Z,6.2922
2023-04-02T02:07:51.039Z,6.2962
2023-04-02T02:08:52.440Z,6.2969
2023-04-02T02:09:53.787Z,6.2947
2023-04-02T02:10:55.194Z,6.2957
2023-04-02T02:11:56.564Z,6.2950
2023-04-02T02:12:57.998Z,6.2992
2023-04-02T02:13:59.356Z,6.3014
2023-04-02T02:15:00.814Z,6.3037
2023-04-02T02:16:02.189Z,6.3024
2023-04-02T02:17:03.575Z,6.3009
2023-04-02T02:18:04.927Z,6.2973
2023-04-02T02:19:06.322Z,6.2942
2023-04-02T02:20:07.741Z,6.2865
2023-04-02T02:21:09.114Z,6.2772
2023-04-02T02:22:10.547Z,6.2621
2023-04-02T02:23:11.936Z,6.2492
2023-04-02T02:24:13.414Z,6.2325
2023-04-02T02:25:14.827Z,6.2130
2023-04-02T02:26:16.238Z,6.1971
2023-04-02T02:27:17.587Z,6.1750
2023-04-02T02:28:19.002Z,6.1499
2023-04-02T02:29:20.384Z,6.1300
2023-04-02T02:30:21.770Z,6.1130
2023-04-02T02:31:23.270Z,6.0943
2023-04-02T02:32:24.701Z,6.0721
2023-04-02T02:33:26.079Z,6.0434
2023-04-02T02:34:27.469Z,6.0181
2023-04-02T02:35:28.983Z,5.9965
2023-04-02T02:36:30.364Z,5.9806
2023-04-02T02:37:31.741Z,5.9675
2023-04-02T02:38:33.147Z,5.9570
2023-04-02T02:39:34.635Z,5.9420
2023-04-02T02:40:36.049Z,5.9285
2023-04-02T02:41:37.441Z,5.9161
2023-04-02T02:42:38.832Z,5.9158
2023-04-02T02:43:40.272Z,5.9198
2023-04-02T02:44:41.670Z,5.9209
2023-04-02T02:45:43.071Z,5.9242
2023-04-02T02:46:44.437Z,5.9334
2023-04-02T02:47:45.885Z,5.9439
2023-04-02T02:48:47.217Z,5.9536
2023-04-02T02:49:48.632Z,5.9677
2023-04-02T02:50:50.060Z,5.9805
2023-04-02T02:51:51.441Z,5.9913
2023-04-02T02:52:52.849Z,6.0021
2023-04-02T02:53:54.249Z,6.0118
2023-04-02T02:54:55.917Z,6.0186
2023-04-02T02:55:57.331Z,6.0210
2023-04-02T02:56:58.716Z,6.0236
2023-04-02T02:58:00.142Z,6.0287
2023-04-02T02:59:01.516Z,6.0363
2023-04-02T03:00:02.962Z,6.0431
2023-04-02T03:01:04.402Z,6.0481
2023-04-02T03:02:05.762Z,6.0548
2023-04-02T03:03:07.238Z,6.0611
2023-04-02T03:04:09.000Z,6.0628
2023-04-02T03:05:10.674Z,6.0619
2023-04-02T03:06:12.100Z,6.0603
2023-04-02T03:07:13.485Z,6.0582
2023-04-02T03:08:14.975Z,6.0568
2023-04-02T03:09:16.398Z,6.0603
2023-04-02T03:10:17.816Z,6.0637
2023-04-02T03:11:19.277Z,6.0619
2023-04-02T03:12:20.685Z,6.0642
2023-04-02T03:13:22.066Z,6.0653
2023-04-02T03:14:23.446Z,6.0686
2023-04-02T03:15:24.798Z,6.0725
2023-04-02T03:16:26.297Z,6.0762
2023-04-02T03:17:27.732Z,6.0807
2023-04-02T03:18:29.155Z,6.0840
2023-04-02T03:19:30.566Z,6.0887
2023-04-02T03:20:31.951Z,6.0944
2023-04-02T03:21:33.399Z,6.0973
2023-04-02T03:22:34.776Z,6.0978
2023-04-02T03:23:36.164Z,6.0977
2023-04-02T03:24:37.524Z,6.0992
2023-04-02T03:25:38.979Z,6.1020
2023-04-02T03:26:40.308Z,6.1045
2023-04-02T03:27:41.755Z,6.1073
2023-04-02T03:28:43.135Z,6.1069
2023-04-02T03:29:44.575Z,6.1044
2023-04-02T03:30:46.028Z,6.1019
2023-04-02T03:31:47.585Z,6.0932
2023-04-02T03:32:49.112Z,6.0874
2023-04-02T03:33:50.596Z,6.0810
2023-04-02T03:34:52.059Z,6.0700
2023-04-02T03:35:53.611Z,6.0566
2023-04-02T03:36:55.065Z,6.0471
2023-04-02T03:37:56.547Z,6.0445
2023-04-02T03:38:58.105Z,6.0414
2023-04-02T03:39:59.594Z,6.0352
2023-04-02T03:41:01.173Z,6.0308
2023-04-02T03:42:02.553Z,6.0293
2023-04-02T03:43:04.015Z,6.0283
2023-04-02T03:44:05.514Z,6.0229
2023-04-02T03:45:07.156Z,6.0195
2023-04-02T03:46:08.926Z,6.0138
2023-04-02T03:47:10.381Z,6.0098
2023-04-02T03:48:11.841Z,6.0059
2023-04-02T03:49:13.324Z,5.9993
2023-04-02T03:50:14.796Z,5.9951
2023-04-02T03:51:16.307Z,5.9904
2023-04-02T03:52:17.779Z,5.9886
2023-04-02T03:53:19.242Z,5.9883
2023-04-02T03:54:20.720Z,5.9878
2023-04-02T03:55:22.253Z,5.9882
2023-04-02T03:56:23.636Z,5.9878
2023-04-02T03:57:25.174Z,5.9886
2023-04-02T03:58:26.721Z,5.9884
2023-04-02T03:59:28.283Z,5.9867
2023-04-02T04:00:29.703Z,5.9862
2023-04-02T04:01:31.209Z,5.9845
2023-04-02T04:02:32.652Z,5.9858
2023-04-02T04:03:34.181Z,5.9884
2023-04-02T04:04:35.730Z,5.9896
2023-04-02T04:05:37.456Z,5.9921
2023-04-02T04:06:39.097Z,5.9945
2023-04-02T04:07:40.520Z,5.9972
2023-04-02T04:08:41.949Z,5.9975
2023-04-02T04:09:43.413Z,5.9979
2023-04-02T04:10:44.890Z,6.0013
2023-04-02T04:11:46.346Z,6.0071
2023-04-02T04:12:47.915Z,6.0155
2023-04-02T04:13:49.384Z,6.0250
2023-04-02T04:14:50.851Z,6.0340
2023-04-02T04:15:52.275Z,6.0446
2023-04-02T04:16:54.003Z,6.0540
2023-04-02T04:17:55.950Z,6.0621
2023-04-02T04:18:57.396Z,6.0693
2023-04-02T04:19:58.856Z,6.0799
2023-04-02T04:21:00.396Z,6.0885
2023-04-02T04:22:01.850Z,6.0965
2023-04-02T04:23:03.268Z,6.1031
2023-04-02T04:24:04.863Z,6.1106
2023-04-02T04:25:06.285Z,6.1191
2023-04-02T04:26:07.731Z,6.1293
2023-04-02T04:27:09.182Z,6.1395
2023-04-02T04:28:10.653Z,6.1434
2023-04-02T04:29:12.070Z,6.1496
2023-04-02T04:30:13.641Z,6.1558
2023-04-02T04:31:15.103Z,6.1647
2023-04-02T04:32:16.609Z,6.1728
2023-04-02T04:33:18.246Z,6.1806
2023-04-02T04:34:19.697Z,6.1903
2023-04-02T04:35:21.144Z,6.1984
2023-04-02T04:36:22.586Z,6.2043
2023-04-02T04:37:24.077Z,6.2050
2023-04-02T04:38:25.562Z,6.2093
2023-04-02T04:39:27.154Z,6.2172
2023-04-02T04:40:28.602Z,6.2250
2023-04-02T04:41:30.049Z,6.2330
2023-04-02T04:42:31.491Z,6.2412
2023-04-02T04:43:32.982Z,6.2496
2023-04-02T04:44:34.445Z,6.2566
2023-04-02T04:45:36.221Z,6.2605
2023-04-02T04:46:37.882Z,6.2634
2023-04-02T04:47:39.373Z,6.2687
2023-04-02T04:48:40.813Z,6.2728
2023-04-02T04:49:42.266Z,6.2772
2023-04-02T04:50:43.705Z,6.2837
2023-04-02T04:51:45.179Z,6.2900
2023-04-02T04:52:46.632Z,6.2969
2023-04-02T04:53:48.185Z,6.2979
2023-04-02T04:54:49.663Z,6.3030
2023-04-02T04:55:51.104Z,6.3087
2023-04-02T04:56:52.606Z,6.3128
2023-04-02T04:57:54.040Z,6.3134
2023-04-02T04:58:55.454Z,6.3127
2023-04-02T04:59:56.878Z,6.3128
2023-04-02T05:00:58.321Z,6.3107
2023-04-02T05:01:59.793Z,6.3103
2023-04-02T05:03:01.373Z,6.3101
2023-04-02T05:04:02.791Z,6.3115
2023-04-02T05:05:04.317Z,6.3145
2023-04-02T05:06:05.764Z,6.3188
2023-04-02T05:07:07.235Z,6.3194
2023-04-02T05:08:08.664Z,6.3191
2023-04-02T05:09:10.080Z,6.3215
2023-04-02T05:10:11.563Z,6.3224
2023-04-02T05:11:13.045Z,6.3169
2023-04-02T05:12:14.493Z,6.3154
2023-04-02T05:13:15.913Z,6.3161
2023-04-02T05:14:17.416Z,6.3190
2023-04-02T05:15:18.867Z,6.3251
2023-04-02T05:16:20.383Z,6.3313
2023-04-02T05:17:21.870Z,6.3359
2023-04-02T05:18:23.372Z,6.3392
2023-04-02T05:19:24.824Z,6.3417
2023-04-02T05:20:26.263Z,6.3464
2023-04-02T05:21:27.669Z,6.3508
2023-04-02T05:22:29.109Z,6.3547
2023-04-02T05:23:30.614Z,6.3611
2023-04-02T05:24:31.998Z,6.3671
2023-04-02T05:25:33.669Z,6.3745
2023-04-02T05:26:35.183Z,6.3829
2023-04-02T05:27:36.681Z,6.3902
2023-04-02T05:28:38.132Z,6.3987
2023-04-02T05:29:39.647Z,6.4067
2023-04-02T05:30:41.251Z,6.4124
2023-04-02T05:31:42.795Z,6.4151
2023-04-02T05:32:44.367Z,6.4203
2023-04-02T05:33:45.866Z,6.4272
2023-04-02T05:34:47.343Z,6.4308
2023-04-02T05:35:48.867Z,6.4375
2023-04-02T05:36:50.356Z,6.4466
2023-04-02T05:37:51.809Z,6.4560
2023-04-02T05:38:53.277Z,6.4636
2023-04-02T05:39:54.792Z,6.4717
2023-04-02T05:40:56.275Z,6.4808
2023-04-02T05:41:57.761Z,6.4890
2023-04-02T05:42:59.197Z,6.4956
2023-04-02T05:44:00.665Z,6.4995
2023-04-02T05:45:02.134Z,6.5033
2023-04-02T05:46:03.804Z,6.5077
2023-04-02T05:47:05.244Z,6.5119
2023-04-02T05:48:06.748Z,6.5200
2023-04-02T05:49:08.183Z,6.5288
2023-04-02T05:50:09.663Z,6.5388
2023-04-02T05:51:11.094Z,6.5484
2023-04-02T05:52:12.556Z,6.5603
2023-04-02T05:53:14.095Z,6.5724
2023-04-02T05:54:15.563Z,6.5818
2023-04-02T05:55:17.386Z,6.5896
2023-04-02T05:56:18.813Z,6.5999
2023-04-02T05:57:20.270Z,6.6150
2023-04-02T05:58:35.573Z,6.6286
2023-04-02T05:59:21.738Z,6.6363
2023-04-02T06:00:23.180Z,6.6437
2023-04-02T06:01:24.620Z,6.6523
2023-04-02T06:02:26.086Z,6.6618
2023-04-02T06:03:27.745Z,6.6705
2023-04-02T06:04:29.223Z,6.6803
2023-04-02T06:05:30.641Z,6.6904
2023-04-02T06:06:32.075Z,6.6996
2023-04-02T06:07:33.516Z,6.7112
2023-04-02T06:08:35.057Z,6.7248
2023-04-02T06:09:36.519Z,6.7396
2023-04-02T06:10:37.972Z,6.7563
2023-04-02T06:11:39.417Z,6.7725
2023-04-02T06:12:40.922Z,6.7891
2023-04-02T06:13:42.406Z,6.8062
2023-04-02T06:14:43.935Z,6.8231
2023-04-02T06:15:47.247Z,6.8412
2023-04-02T06:16:46.801Z,6.8600
2023-04-02T06:17:48.301Z,6.8791
2023-04-02T06:18:49.789Z,6.8987
2023-04-02T06:19:51.251Z,6.9154
2023-04-02T06:20:52.720Z,6.9357
2023-04-02T06:21:54.124Z,6.9525
2023-04-02T06:22:55.623Z,6.9660
2023-04-02T06:23:57.102Z,6.9829
2023-04-02T06:24:58.543Z,7.0012
2023-04-02T06:26:00.013Z,7.0213
2023-04-02T06:27:01.491Z,7.0454
2023-04-02T06:28:02.982Z,7.0721
2023-04-02T06:29:04.465Z,7.0966
2023-04-02T06:30:05.917Z,7.1217
2023-04-02T06:31:07.552Z,7.1460
2023-04-02T06:32:08.992Z,7.1708
2023-04-02T06:33:10.521Z,7.1932
2023-04-02T06:34:12.000Z,7.2142
2023-04-02T06:35:13.442Z,7.2314
2023-04-02T06:36:14.878Z,7.2520
2023-04-02T06:37:16.252Z,7.2755
2023-04-02T06:38:17.745Z,7.2938
2023-04-02T06:39:19.184Z,7.3142
2023-04-02T06:40:20.640Z,7.3392
2023-04-02T06:41:22.861Z,7.3651
2023-04-02T06:42:24.331Z,7.3944
2023-04-02T06:43:25.780Z,7.4212
2023-04-02T06:44:27.254Z,7.4464
2023-04-02T06:45:28.681Z,7.4731
2023-04-02T06:46:30.172Z,7.4974
2023-04-02T06:47:31.704Z,7.5220
2023-04-02T06:48:33.280Z,7.5492
2023-04-02T06:49:34.701Z,7.5718
2023-04-02T06:50:36.168Z,7.5893
2023-04-02T06:51:37.609Z,7.5953
2023-04-02T06:52:39.072Z,7.5986
2023-04-02T06:53:40.517Z,7.6084
2023-04-02T06:54:41.948Z,7.6202
2023-04-02T06:55:43.422Z,7.6321
2023-04-02T06:56:44.779Z,7.6441
2023-04-02T06:57:46.244Z,7.6571
2023-04-02T06:58:47.709Z,7.6736
2023-04-02T06:59:49.132Z,7.6965
2023-04-02T07:00:50.513Z,7.7213
2023-04-02T07:01:51.998Z,7.7451
2023-04-02T07:02:55.152Z,7.7666
2023-04-02T07:03:58.447Z,7.7846
2023-04-02T07:05:00.864Z,7.8115
2023-04-02T07:06:02.273Z,7.8410
2023-04-02T07:07:03.734Z,7.8683
2023-04-02T07:08:05.208Z,7.8867
2023-04-02T07:09:07.641Z,7.9093
2023-04-02T07:10:09.172Z,7.9358
2023-04-02T07:11:10.649Z,7.9546
2023-04-02T07:12:12.062Z,7.9694
2023-04-02T07:13:13.533Z,7.9841
2023-04-02T07:14:15.002Z,8.0028
2023-04-02T07:15:16.586Z,8.0227
2023-04-02T07:16:18.093Z,8.0411
2023-04-02T07:17:19.640Z,8.0589
2023-04-02T07:18:21.198Z,8.0755
2023-04-02T07:19:22.769Z,8.0916
2023-04-02T07:20:24.238Z,8.1057
2023-04-02T07:21:25.683Z,8.1189
2023-04-02T07:22:27.091Z,8.1332
2023-04-02T07:23:28.560Z,8.1451
2023-04-02T07:24:30.030Z,8.1578
2023-04-02T07:25:31.487Z,8.1718
2023-04-02T07:26:32.932Z,8.1878
2023-04-02T07:27:34.379Z,8.1999
2023-04-02T07:28:35.859Z,8.2157
2023-04-02T07:29:37.271Z,8.2407
2023-04-02T07:30:38.688Z,8.2626
2023-04-02T07:31:40.230Z,8.2806
2023-04-02T07:32:41.674Z,8.2997
2023-04-02T07:33:43.081Z,8.3241
2023-04-02T07:34:44.485Z,8.3444
2023-04-02T07:35:46.028Z,8.3644
2023-04-02T07:36:47.441Z,8.3881
2023-04-02T07:37:48.894Z,8.4138
2023-04-02T07:38:50.303Z,8.4416
2023-04-02T07:39:51.809Z,8.4770
2023-04-02T07:40:53.238Z,8.5151
2023-04-02T07:41:54.568Z,8.5538
2023-04-02T07:42:56.038Z,8.5895
2023-04-02T07:43:57.524Z,8.6185
2023-04-02T07:44:58.926Z,8.6503
2023-04-02T07:46:00.339Z,8.6805
2023-04-02T07:47:01.834Z,8.7055
2023-04-02T07:48:03.495Z,8.7275
2023-04-02T07:49:05.010Z,8.7542
2023-04-02T07:50:06.491Z,8.7898
2023-04-02T07:51:07.919Z,8.8405
2023-04-02T07:52:09.373Z,8.9015
2023-04-02T07:53:10.786Z,8.9558
2023-04-02T07:54:12.254Z,9.0142
2023-04-02T07:55:13.672Z,9.0726
2023-04-02T07:56:15.104Z,9.1388
2023-04-02T07:57:16.556Z,9.2214
2023-04-02T07:58:17.975Z,9.2998
2023-04-02T07:59:19.442Z,9.3711
2023-04-02T08:00:20.860Z,9.4253
2023-04-02T08:01:22.279Z,9.4695
2023-04-02T08:02:23.703Z,9.5064
2023-04-02T08:03:25.318Z,9.5379
2023-04-02T08:04:26.845Z,9.5518
2023-04-02T08:05:28.331Z,9.5566
2023-04-02T08:06:29.776Z,9.5541
2023-04-02T08:07:31.229Z,9.5643
2023-04-02T08:08:32.685Z,9.5750
2023-04-02T08:09:34.123Z,9.5897
2023-04-02T08:10:35.639Z,9.6065
2023-04-02T08:11:37.154Z,9.6137
2023-04-02T08:12:38.678Z,9.6286
2023-04-02T08:13:40.131Z,9.6505
2023-04-02T08:14:41.639Z,9.6813
2023-04-02T08:15:43.028Z,9.7161
2023-04-02T08:16:44.586Z,9.7407
2023-04-02T08:17:46.029Z,9.7549
2023-04-02T08:18:47.473Z,9.7606
2023-04-02T08:19:55.130Z,9.7692
2023-04-02T08:20:49.011Z,9.7788
2023-04-02T08:21:50.466Z,9.7952
2023-04-02T08:22:51.945Z,9.8131
2023-04-02T08:23:53.371Z,9.8383
2023-04-02T08:24:54.912Z,9.8585
2023-04-02T08:25:56.366Z,9.8544
2023-04-02T08:26:57.847Z,9.8404
2023-04-02T08:27:59.292Z,9.8321
2023-04-02T08:29:00.853Z,9.8352
2023-04-02T08:30:02.316Z,9.8556
2023-04-02T08:31:03.853Z,9.8733
2023-04-02T08:32:05.276Z,9.8838
2023-04-02T08:33:06.768Z,9.8857
2023-04-02T08:34:08.195Z,9.8679
2023-04-02T08:35:09.731Z,9.8411
2023-04-02T08:36:11.304Z,9.8174
2023-04-02T08:37:12.733Z,9.7864
2023-04-02T08:38:14.140Z,9.7592
2023-04-02T08:39:15.586Z,9.7338
2023-04-02T08:40:17.023Z,9.7156
2023-04-02T08:41:18.571Z,9.7106
2023-04-02T08:42:19.984Z,9.7195
2023-04-02T08:43:23.109Z,9.7350
2023-04-02T08:44:22.973Z,9.7453
2023-04-02T08:45:25.595Z,9.7554
2023-04-02T08:46:24.918Z,9.7664
2023-04-02T08:47:26.420Z,9.7716
2023-04-02T08:48:27.841Z,9.7794
2023-04-02T08:49:29.322Z,9.7651
2023-04-02T08:50:30.861Z,9.7401
2023-04-02T08:51:32.302Z,9.7355
2023-04-02T08:52:33.740Z,9.7298
2023-04-02T08:53:35.206Z,9.7267
2023-04-02T08:54:36.676Z,9.7112
2023-04-02T08:55:38.240Z,9.6994
2023-04-02T08:56:39.737Z,9.6991
2023-04-02T08:57:41.182Z,9.7011
2023-04-02T08:58:42.610Z,9.7053
2023-04-02T08:59:44.107Z,9.7046
2023-04-02T09:00:45.562Z,9.7083
2023-04-02T09:01:47.031Z,9.7212
2023-04-02T09:02:48.480Z,9.7313
2023-04-02T09:03:49.916Z,9.7291
2023-04-02T09:04:51.439Z,9.7261
2023-04-02T09:05:52.933Z,9.7360
2023-04-02T09:06:54.369Z,9.7538
2023-04-02T09:07:55.811Z,9.7731
2023-04-02T09:08:57.267Z,9.7894
2023-04-02T09:09:58.836Z,9.8013
2023-04-02T09:11:00.306Z,9.8172
2023-04-02T09:12:01.803Z,9.8387
2023-04-02T09:13:03.198Z,9.8641
2023-04-02T09:14:04.747Z,9.8873
2023-04-02T09:15:06.214Z,9.9035
2023-04-02T09:16:07.792Z,9.9213
2023-04-02T09:17:09.251Z,9.9535
2023-04-02T09:18:10.741Z,9.9962
2023-04-02T09:19:12.166Z,10.0313
2023-04-02T09:20:13.661Z,10.0706
2023-04-02T09:21:15.112Z,10.1038
2023-04-02T09:22:16.593Z,10.1433
2023-04-02T09:23:18.044Z,10.1966
2023-04-02T09:24:19.523Z,10.2541
2023-04-02T09:25:21.021Z,10.3157
2023-04-02T09:26:22.460Z,10.3814
2023-04-02T09:27:23.893Z,10.4424
2023-04-02T09:28:25.341Z,10.5017
2023-04-02T09:29:26.769Z,10.5466
2023-04-02T09:30:28.257Z,10.5843
2023-04-02T09:31:29.705Z,10.6224
2023-04-02T09:32:31.165Z,10.6652
2023-04-02T09:33:32.536Z,10.7073
2023-04-02T09:34:34.159Z,10.7474
2023-04-02T09:35:35.597Z,10.7822
2023-04-02T09:36:37.051Z,10.8064
2023-04-02T09:37:38.464Z,10.8196
2023-04-02T09:38:39.955Z,10.8185
2023-04-02T09:39:41.430Z,10.8021
2023-04-02T09:40:43.097Z,10.7906
2023-04-02T09:41:48.186Z,10.7819
2023-04-02T09:42:44.590Z,10.7672
2023-04-02T09:43:46.046Z,10.7391
2023-04-02T09:44:47.516Z,10.6990
2023-04-02T09:45:49.282Z,10.6741
2023-04-02T09:46:50.764Z,10.6365
2023-04-02T09:47:52.240Z,10.6107
2023-04-02T09:48:53.703Z,10.5825
2023-04-02T09:49:55.149Z,10.5647
2023-04-02T09:50:56.639Z,10.5662
2023-04-02T09:51:58.732Z,10.5806
2023-04-02T09:53:00.212Z,10.5987
2023-04-02T09:54:01.681Z,10.6097
2023-04-02T09:55:03.137Z,10.6061
2023-04-02T09:56:04.617Z,10.6048
2023-04-02T09:57:06.120Z,10.6171
2023-04-02T09:58:07.575Z,10.6229
2023-04-02T09:59:09.025Z,10.6365
2023-04-02T10:00:18.371Z,10.6422
2023-04-02T10:01:10.586Z,10.6487
2023-04-02T10:02:12.024Z,10.6554
2023-04-02T10:03:13.478Z,10.6761
2023-04-02T10:04:14.951Z,10.7043
2023-04-02T10:05:23.549Z,10.7320
2023-04-02T10:06:15.550Z,10.7659
2023-04-02T10:07:16.970Z,10.8165
2023-04-02T10:08:18.446Z,10.8773
2023-04-02T10:09:19.915Z,10.9416
2023-04-02T10:10:21.406Z,11.0024
2023-04-02T10:11:22.973Z,11.0547
2023-04-02T10:12:24.930Z,11.1105
2023-04-02T10:13:26.364Z,11.1702
2023-04-02T10:14:27.829Z,11.2303
2023-04-02T10:15:29.222Z,11.2971
2023-04-02T10:16:30.708Z,11.3630
2023-04-02T10:17:32.178Z,11.4349
2023-04-02T10:18:33.722Z,11.5080
2023-04-02T10:19:35.179Z,11.5684
2023-04-02T10:20:48.597Z,11.6325
2023-04-02T10:21:36.653Z,11.6931
2023-04-02T10:22:38.117Z,11.7475
2023-04-02T10:23:39.591Z,11.8072
2023-04-02T10:24:41.052Z,11.8594
2023-04-02T10:25:42.508Z,11.9065
2023-04-02T10:26:43.990Z,11.9566
2023-04-02T10:27:45.402Z,12.0060
2023-04-02T10:28:46.895Z,12.0604
2023-04-02T10:29:48.331Z,12.1292
2023-04-02T10:30:49.814Z,12.1916
2023-04-02T10:31:51.231Z,12.2417
2023-04-02T10:32:52.728Z,12.2768
2023-04-02T10:33:54.189Z,12.2997
2023-04-02T10:34:55.622Z,12.3190
2023-04-02T10:35:57.123Z,12.3446
2023-04-02T10:36:58.541Z,12.3626
2023-04-02T10:37:59.994Z,12.3695
2023-04-02T10:39:01.414Z,12.3794
2023-04-02T10:40:02.845Z,12.3950
2023-04-02T10:41:04.324Z,12.4098
2023-04-02T10:42:05.723Z,12.4206
2023-04-02T10:43:07.181Z,12.4229
2023-04-02T10:44:18.998Z,12.4118
2023-04-02T10:45:08.707Z,12.3943
2023-04-02T10:46:10.205Z,12.3862
2023-04-02T10:47:11.737Z,12.3865
2023-04-02T10:48:13.192Z,12.3932
2023-04-02T10:49:14.672Z,12.4050
2023-04-02T10:50:16.100Z,12.4238
2023-04-02T10:51:17.596Z,12.4505
2023-04-02T10:52:19.038Z,12.4864
2023-04-02T10:53:20.485Z,12.5246
2023-04-02T10:54:21.899Z,12.5688
2023-04-02T10:55:23.366Z,12.6173
2023-04-02T10:56:24.832Z,12.6600
2023-04-02T10:57:26.304Z,12.6843
2023-04-02T10:58:27.739Z,12.6936
2023-04-02T10:59:29.194Z,12.6931
2023-04-02T11:00:30.655Z,12.7097
2023-04-02T11:01:32.156Z,12.7256
2023-04-02T11:02:33.594Z,12.7407
2023-04-02T11:03:35.197Z,12.7729
2023-04-02T11:04:36.675Z,12.8155
2023-04-02T11:05:38.158Z,12.8653
2023-04-02T11:06:39.586Z,12.9026
2023-04-02T11:07:41.021Z,12.9286
2023-04-02T11:08:42.417Z,12.9444
2023-04-02T11:09:43.896Z,12.9497
2023-04-02T11:10:45.343Z,12.9551
2023-04-02T11:11:46.789Z,12.9501
2023-04-02T11:12:48.199Z,12.9288
2023-04-02T11:13:49.657Z,12.9087
2023-04-02T11:14:51.114Z,12.9054
2023-04-02T11:15:52.579Z,12.9294
2023-04-02T11:16:54.038Z,12.9728
2023-04-02T11:17:55.513Z,12.9978
2023-04-02T11:18:56.954Z,12.9962
2023-04-02T11:19:58.377Z,12.9926
2023-04-02T11:20:59.834Z,12.9884
2023-04-02T11:22:03.113Z,12.9751
2023-04-02T11:23:01.818Z,12.9496
2023-04-02T11:24:03.218Z,12.9456
2023-04-02T11:25:04.672Z,12.9541
2023-04-02T11:26:06.115Z,12.9597
2023-04-02T11:27:07.650Z,12.9697
2023-04-02T11:28:09.073Z,12.9899
2023-04-02T11:29:10.532Z,13.0206
2023-04-02T11:30:11.972Z,13.0557
2023-04-02T11:31:13.406Z,13.0946
2023-04-02T11:32:14.818Z,13.1270
2023-04-02T11:33:18.692Z,13.1415
2023-04-02T11:34:17.554Z,13.1394
2023-04-02T11:35:19.012Z,13.1347
2023-04-02T11:36:20.420Z,13.1338
2023-04-02T11:37:21.911Z,13.1360
2023-04-02T11:38:23.294Z,13.1480
2023-04-02T11:39:24.726Z,13.1661
2023-04-02T11:40:26.154Z,13.2000
2023-04-02T11:41:27.576Z,13.2577
2023-04-02T11:42:29.023Z,13.3548
2023-04-02T11:43:30.455Z,13.5501
2023-04-02T11:44:31.838Z,13.8370
2023-04-02T11:45:40.167Z,14.2358
2023-04-02T11:46:33.221Z,14.6364
2023-04-02T11:47:34.660Z,14.8771
2023-04-02T11:48:36.273Z,15.0704
2023-04-02T11:49:37.788Z,15.2177
2023-04-02T11:50:38.255Z,15.3281
2023-04-02T11:51:39.762Z,15.5146
2023-04-02T11:52:41.272Z,15.7058
2023-04-02T11:53:42.649Z,15.9454
2023-04-02T11:54:44.074Z,16.1731
2023-04-02T11:55:45.418Z,16.3136
2023-04-02T11:56:46.793Z,16.4344
2023-04-02T11:57:48.176Z,16.4610
2023-04-02T11:58:49.527Z,16.4527
2023-04-02T11:59:50.863Z,16.4546
2023-04-02T12:00:52.267Z,16.5526
2023-04-02T12:01:53.633Z,16.8160
2023-04-02T12:02:55.016Z,17.1305
2023-04-02T12:03:56.396Z,17.4151
2023-04-02T12:04:57.721Z,17.5066
2023-04-02T12:05:59.082Z,17.4806
2023-04-02T12:07:00.463Z,17.4098
2023-04-02T12:08:01.830Z,17.1907
2023-04-02T12:09:03.271Z,16.8997
2023-04-02T12:10:04.639Z,16.6598
2023-04-02T12:11:06.016Z,16.4962
2023-04-02T12:12:07.398Z,16.3976
2023-04-02T12:13:08.795Z,16.3347
2023-04-02T12:14:10.177Z,16.2824
2023-04-02T12:15:10.165Z,16.2304
2023-04-02T12:16:11.558Z,16.1600
2023-04-02T12:17:13.091Z,16.0995
2023-04-02T12:18:14.583Z,16.0546
2023-04-02T12:19:15.968Z,16.0249
2023-04-02T12:20:17.386Z,16.0061
2023-04-02T12:21:18.795Z,15.9724
2023-04-02T12:22:20.344Z,15.9270
2023-04-02T12:23:21.745Z,15.8752
2023-04-02T12:24:23.192Z,15.8290
2023-04-02T12:25:24.711Z,15.7783
2023-04-02T12:26:26.151Z,15.7265
2023-04-02T12:27:27.825Z,15.6746
2023-04-02T12:28:29.661Z,15.6193
2023-04-02T12:29:31.097Z,15.5805
2023-04-02T12:30:32.596Z,15.5561
2023-04-02T12:31:34.145Z,15.5328
2023-04-02T12:32:35.611Z,15.5004
2023-04-02T12:33:37.100Z,15.4706
2023-04-02T12:34:38.641Z,15.4452
2023-04-02T12:35:40.155Z,15.4233
2023-04-02T12:36:41.589Z,15.4081
2023-04-02T12:37:43.082Z,15.3832
2023-04-02T12:38:44.594Z,15.3435
2023-04-02T12:39:46.090Z,15.2832
2023-04-02T12:40:47.574Z,15.2445